sensor_id;sensor_type;location;lat;lon;timestamp;P1;durP1;ratioP1;P2;durP2;ratioP2
34984;SDS011;21190;58.750;17.004;2024-03-02T00:00:48;44.92;;;19.02;;
34984;SDS011;21190;58.750;17.004;2024-03-02T00:03:17;46.03;;;19.00;;
34984;SDS011;21190;58.750;17.004;2024-03-02T00:05:48;49.45;;;19.45;;
34984;SDS011;21190;58.750;17.004;2024-03-02T00:08:19;47.05;;;19.27;;
34984;SDS011;21190;58.750;17.004;2024-03-02T00:10:51;47.90;;;19.08;;
34984;SDS011;21190;58.750;17.004;2024-03-02T00:13:20;45.15;;;18.75;;
34984;SDS011;21190;58.750;17.004;2024-03-02T00:15:54;46.63;;;19.38;;
34984;SDS011;21190;58.750;17.004;2024-03-02T00:18:26;44.28;;;18.55;;
34984;SDS011;21190;58.750;17.004;2024-03-02T00:20:57;41.05;;;18.48;;
34984;SDS011;21190;58.750;17.004;2024-03-02T00:23:27;42.03;;;18.10;;
34984;SDS011;21190;58.750;17.004;2024-03-02T00:25:57;44.75;;;20.08;;
34984;SDS011;21190;58.750;17.004;2024-03-02T00:28:27;45.67;;;18.30;;
34984;SDS011;21190;58.750;17.004;2024-03-02T00:33:44;38.17;;;18.30;;
34984;SDS011;21190;58.750;17.004;2024-03-02T00:36:16;43.38;;;19.40;;
34984;SDS011;21190;58.750;17.004;2024-03-02T00:38:52;44.63;;;18.33;;
34984;SDS011;21190;58.750;17.004;2024-03-02T00:41:38;39.55;;;16.83;;
34984;SDS011;21190;58.750;17.004;2024-03-02T00:44:13;41.20;;;16.77;;
34984;SDS011;21190;58.750;17.004;2024-03-02T00:46:42;40.95;;;18.13;;
34984;SDS011;21190;58.750;17.004;2024-03-02T00:49:17;34.65;;;16.40;;
34984;SDS011;21190;58.750;17.004;2024-03-02T00:54:23;39.67;;;17.17;;
34984;SDS011;21190;58.750;17.004;2024-03-02T00:56:55;40.17;;;18.50;;
34984;SDS011;21190;58.750;17.004;2024-03-02T00:59:23;35.75;;;16.80;;
34984;SDS011;21190;58.750;17.004;2024-03-02T01:01:51;32.78;;;15.98;;
34984;SDS011;21190;58.750;17.004;2024-03-02T01:04:18;43.83;;;17.38;;
34984;SDS011;21190;58.750;17.004;2024-03-02T01:06:46;42.17;;;18.05;;
34984;SDS011;21190;58.750;17.004;2024-03-02T01:09:14;34.50;;;16.52;;
34984;SDS011;21190;58.750;17.004;2024-03-02T01:11:45;41.55;;;16.38;;
34984;SDS011;21190;58.750;17.004;2024-03-02T01:14:13;36.78;;;17.00;;
34984;SDS011;21190;58.750;17.004;2024-03-02T01:16:41;36.88;;;17.40;;
34984;SDS011;21190;58.750;17.004;2024-03-02T01:19:08;32.58;;;15.48;;
34984;SDS011;21190;58.750;17.004;2024-03-02T01:21:36;38.13;;;17.63;;
34984;SDS011;21190;58.750;17.004;2024-03-02T01:24:03;37.97;;;16.70;;
34984;SDS011;21190;58.750;17.004;2024-03-02T01:26:31;44.33;;;19.30;;
34984;SDS011;21190;58.750;17.004;2024-03-02T01:28:58;37.40;;;17.35;;
34984;SDS011;21190;58.750;17.004;2024-03-02T01:31:25;42.17;;;17.15;;
34984;SDS011;21190;58.750;17.004;2024-03-02T01:33:52;36.53;;;15.82;;
34984;SDS011;21190;58.750;17.004;2024-03-02T01:36:19;37.20;;;17.67;;
34984;SDS011;21190;58.750;17.004;2024-03-02T01:38:46;44.80;;;17.35;;
34984;SDS011;21190;58.750;17.004;2024-03-02T01:41:14;35.42;;;16.58;;
34984;SDS011;21190;58.750;17.004;2024-03-02T01:43:41;33.08;;;15.27;;
34984;SDS011;21190;58.750;17.004;2024-03-02T01:46:09;33.85;;;16.98;;
34984;SDS011;21190;58.750;17.004;2024-03-02T01:48:36;34.50;;;17.02;;
34984;SDS011;21190;58.750;17.004;2024-03-02T01:51:03;36.83;;;17.30;;
34984;SDS011;21190;58.750;17.004;2024-03-02T01:53:33;36.08;;;16.52;;
34984;SDS011;21190;58.750;17.004;2024-03-02T01:56:01;29.25;;;14.88;;
34984;SDS011;21190;58.750;17.004;2024-03-02T01:58:28;35.30;;;16.23;;
34984;SDS011;21190;58.750;17.004;2024-03-02T02:00:55;35.67;;;15.07;;
34984;SDS011;21190;58.750;17.004;2024-03-02T02:03:22;34.95;;;16.90;;
34984;SDS011;21190;58.750;17.004;2024-03-02T02:05:49;44.28;;;15.18;;
34984;SDS011;21190;58.750;17.004;2024-03-02T02:08:17;31.77;;;15.80;;
34984;SDS011;21190;58.750;17.004;2024-03-02T02:10:44;38.53;;;16.05;;
34984;SDS011;21190;58.750;17.004;2024-03-02T02:13:14;31.02;;;15.73;;
34984;SDS011;21190;58.750;17.004;2024-03-02T02:15:41;34.95;;;15.93;;
34984;SDS011;21190;58.750;17.004;2024-03-02T02:18:08;31.00;;;15.73;;
34984;SDS011;21190;58.750;17.004;2024-03-02T02:20:35;36.10;;;15.60;;
34984;SDS011;21190;58.750;17.004;2024-03-02T02:23:03;34.53;;;15.63;;
34984;SDS011;21190;58.750;17.004;2024-03-02T02:25:32;31.02;;;13.73;;
34984;SDS011;21190;58.750;17.004;2024-03-02T02:27:59;33.67;;;14.93;;
34984;SDS011;21190;58.750;17.004;2024-03-02T02:30:28;33.28;;;14.20;;
34984;SDS011;21190;58.750;17.004;2024-03-02T02:32:57;37.88;;;14.77;;
34984;SDS011;21190;58.750;17.004;2024-03-02T02:35:25;29.00;;;13.75;;
34984;SDS011;21190;58.750;17.004;2024-03-02T02:37:54;29.20;;;14.70;;
34984;SDS011;21190;58.750;17.004;2024-03-02T02:40:22;36.53;;;15.23;;
34984;SDS011;21190;58.750;17.004;2024-03-02T02:42:50;34.15;;;14.60;;
34984;SDS011;21190;58.750;17.004;2024-03-02T02:45:20;28.30;;;13.70;;
34984;SDS011;21190;58.750;17.004;2024-03-02T02:47:48;35.30;;;14.32;;
34984;SDS011;21190;58.750;17.004;2024-03-02T02:50:15;31.25;;;15.13;;
34984;SDS011;21190;58.750;17.004;2024-03-02T02:52:42;30.45;;;14.52;;
34984;SDS011;21190;58.750;17.004;2024-03-02T02:55:10;25.20;;;13.70;;
34984;SDS011;21190;58.750;17.004;2024-03-02T02:57:40;35.85;;;13.80;;
34984;SDS011;21190;58.750;17.004;2024-03-02T03:00:13;32.78;;;14.20;;
34984;SDS011;21190;58.750;17.004;2024-03-02T03:02:48;31.95;;;14.15;;
34984;SDS011;21190;58.750;17.004;2024-03-02T03:05:17;28.35;;;13.65;;
34984;SDS011;21190;58.750;17.004;2024-03-02T03:07:45;36.50;;;14.07;;
34984;SDS011;21190;58.750;17.004;2024-03-02T03:10:15;29.92;;;14.27;;
34984;SDS011;21190;58.750;17.004;2024-03-02T03:12:43;26.45;;;13.93;;
34984;SDS011;21190;58.750;17.004;2024-03-02T03:15:11;26.48;;;13.55;;
34984;SDS011;21190;58.750;17.004;2024-03-02T03:17:39;29.17;;;14.00;;
34984;SDS011;21190;58.750;17.004;2024-03-02T03:20:07;29.27;;;14.23;;
34984;SDS011;21190;58.750;17.004;2024-03-02T03:22:38;29.80;;;14.70;;
34984;SDS011;21190;58.750;17.004;2024-03-02T03:25:05;33.15;;;14.43;;
34984;SDS011;21190;58.750;17.004;2024-03-02T03:27:35;27.13;;;13.18;;
34984;SDS011;21190;58.750;17.004;2024-03-02T03:30:02;28.33;;;13.50;;
34984;SDS011;21190;58.750;17.004;2024-03-02T03:32:30;28.42;;;14.43;;
34984;SDS011;21190;58.750;17.004;2024-03-02T03:34:57;29.67;;;13.80;;
34984;SDS011;21190;58.750;17.004;2024-03-02T03:37:24;28.10;;;14.32;;
34984;SDS011;21190;58.750;17.004;2024-03-02T03:39:54;31.35;;;14.38;;
34984;SDS011;21190;58.750;17.004;2024-03-02T03:42:21;31.10;;;15.45;;
34984;SDS011;21190;58.750;17.004;2024-03-02T03:44:48;41.80;;;16.33;;
34984;SDS011;21190;58.750;17.004;2024-03-02T03:47:15;30.77;;;15.55;;
34984;SDS011;21190;58.750;17.004;2024-03-02T03:49:42;38.50;;;16.85;;
34984;SDS011;21190;58.750;17.004;2024-03-02T03:52:10;36.08;;;15.63;;
34984;SDS011;21190;58.750;17.004;2024-03-02T03:54:37;35.88;;;15.52;;
34984;SDS011;21190;58.750;17.004;2024-03-02T03:57:05;35.90;;;15.90;;
34984;SDS011;21190;58.750;17.004;2024-03-02T03:59:32;35.55;;;16.67;;
34984;SDS011;21190;58.750;17.004;2024-03-02T04:01:59;39.60;;;16.02;;
34984;SDS011;21190;58.750;17.004;2024-03-02T04:04:27;39.30;;;17.23;;
34984;SDS011;21190;58.750;17.004;2024-03-02T04:06:54;40.20;;;17.85;;
34984;SDS011;21190;58.750;17.004;2024-03-02T04:09:21;41.95;;;17.75;;
34984;SDS011;21190;58.750;17.004;2024-03-02T04:11:48;30.73;;;16.77;;
34984;SDS011;21190;58.750;17.004;2024-03-02T04:14:16;34.35;;;16.63;;
34984;SDS011;21190;58.750;17.004;2024-03-02T04:16:43;50.25;;;18.52;;
34984;SDS011;21190;58.750;17.004;2024-03-02T04:19:10;44.28;;;19.23;;
34984;SDS011;21190;58.750;17.004;2024-03-02T04:21:37;39.72;;;18.77;;
34984;SDS011;21190;58.750;17.004;2024-03-02T04:24:04;37.20;;;17.50;;
34984;SDS011;21190;58.750;17.004;2024-03-02T04:26:32;43.33;;;19.45;;
34984;SDS011;21190;58.750;17.004;2024-03-02T04:28:59;39.50;;;18.27;;
34984;SDS011;21190;58.750;17.004;2024-03-02T04:31:26;40.90;;;18.90;;
34984;SDS011;21190;58.750;17.004;2024-03-02T04:33:54;46.97;;;19.55;;
34984;SDS011;21190;58.750;17.004;2024-03-02T04:36:21;43.72;;;19.50;;
34984;SDS011;21190;58.750;17.004;2024-03-02T04:38:48;39.28;;;18.67;;
34984;SDS011;21190;58.750;17.004;2024-03-02T04:41:15;38.95;;;19.55;;
34984;SDS011;21190;58.750;17.004;2024-03-02T04:43:43;42.70;;;19.63;;
34984;SDS011;21190;58.750;17.004;2024-03-02T04:46:11;41.67;;;19.27;;
34984;SDS011;21190;58.750;17.004;2024-03-02T04:48:38;43.50;;;19.13;;
34984;SDS011;21190;58.750;17.004;2024-03-02T04:51:05;41.22;;;19.23;;
34984;SDS011;21190;58.750;17.004;2024-03-02T04:53:32;40.00;;;19.10;;
34984;SDS011;21190;58.750;17.004;2024-03-02T04:55:59;44.20;;;19.98;;
34984;SDS011;21190;58.750;17.004;2024-03-02T04:58:35;46.58;;;19.05;;
34984;SDS011;21190;58.750;17.004;2024-03-02T05:01:02;42.78;;;19.38;;
34984;SDS011;21190;58.750;17.004;2024-03-02T05:03:29;42.45;;;19.27;;
34984;SDS011;21190;58.750;17.004;2024-03-02T05:05:56;47.40;;;20.75;;
34984;SDS011;21190;58.750;17.004;2024-03-02T05:08:24;48.35;;;22.60;;
34984;SDS011;21190;58.750;17.004;2024-03-02T05:10:51;46.13;;;20.98;;
34984;SDS011;21190;58.750;17.004;2024-03-02T05:13:18;52.80;;;21.67;;
34984;SDS011;21190;58.750;17.004;2024-03-02T05:15:47;39.17;;;20.27;;
34984;SDS011;21190;58.750;17.004;2024-03-02T05:18:14;63.78;;;22.35;;
34984;SDS011;21190;58.750;17.004;2024-03-02T05:20:42;43.95;;;21.55;;
34984;SDS011;21190;58.750;17.004;2024-03-02T05:23:09;51.50;;;22.70;;
34984;SDS011;21190;58.750;17.004;2024-03-02T05:25:36;48.45;;;22.95;;
34984;SDS011;21190;58.750;17.004;2024-03-02T05:28:04;48.97;;;21.13;;
34984;SDS011;21190;58.750;17.004;2024-03-02T05:30:31;52.42;;;22.92;;
34984;SDS011;21190;58.750;17.004;2024-03-02T05:32:58;53.10;;;23.38;;
34984;SDS011;21190;58.750;17.004;2024-03-02T05:35:26;50.15;;;22.48;;
34984;SDS011;21190;58.750;17.004;2024-03-02T05:37:53;48.00;;;23.25;;
34984;SDS011;21190;58.750;17.004;2024-03-02T05:40:20;55.20;;;23.13;;
34984;SDS011;21190;58.750;17.004;2024-03-02T05:42:49;52.15;;;22.83;;
34984;SDS011;21190;58.750;17.004;2024-03-02T05:45:17;58.30;;;24.65;;
34984;SDS011;21190;58.750;17.004;2024-03-02T05:47:44;49.38;;;22.33;;
34984;SDS011;21190;58.750;17.004;2024-03-02T05:50:12;49.75;;;22.75;;
34984;SDS011;21190;58.750;17.004;2024-03-02T05:52:39;70.22;;;24.52;;
34984;SDS011;21190;58.750;17.004;2024-03-02T05:55:06;53.88;;;23.33;;
34984;SDS011;21190;58.750;17.004;2024-03-02T05:57:33;51.30;;;23.02;;
34984;SDS011;21190;58.750;17.004;2024-03-02T06:00:09;56.53;;;22.85;;
34984;SDS011;21190;58.750;17.004;2024-03-02T06:02:40;51.53;;;22.38;;
34984;SDS011;21190;58.750;17.004;2024-03-02T06:05:07;49.55;;;20.63;;
34984;SDS011;21190;58.750;17.004;2024-03-02T06:07:35;45.33;;;22.13;;
34984;SDS011;21190;58.750;17.004;2024-03-02T06:10:02;56.42;;;23.35;;
34984;SDS011;21190;58.750;17.004;2024-03-02T06:12:30;58.10;;;22.48;;
34984;SDS011;21190;58.750;17.004;2024-03-02T06:14:58;52.97;;;22.90;;
34984;SDS011;21190;58.750;17.004;2024-03-02T06:17:26;56.13;;;23.80;;
34984;SDS011;21190;58.750;17.004;2024-03-02T06:19:53;51.28;;;23.08;;
34984;SDS011;21190;58.750;17.004;2024-03-02T06:22:20;49.25;;;21.27;;
34984;SDS011;21190;58.750;17.004;2024-03-02T06:24:49;46.05;;;20.95;;
34984;SDS011;21190;58.750;17.004;2024-03-02T06:27:16;45.28;;;21.00;;
34984;SDS011;21190;58.750;17.004;2024-03-02T06:29:43;50.10;;;21.52;;
34984;SDS011;21190;58.750;17.004;2024-03-02T06:32:11;50.67;;;22.23;;
34984;SDS011;21190;58.750;17.004;2024-03-02T06:34:38;51.10;;;20.55;;
34984;SDS011;21190;58.750;17.004;2024-03-02T06:37:05;52.38;;;21.30;;
34984;SDS011;21190;58.750;17.004;2024-03-02T06:39:32;50.83;;;20.67;;
34984;SDS011;21190;58.750;17.004;2024-03-02T06:42:00;43.72;;;20.92;;
34984;SDS011;21190;58.750;17.004;2024-03-02T06:44:28;49.97;;;20.52;;
34984;SDS011;21190;58.750;17.004;2024-03-02T06:46:55;47.28;;;20.65;;
34984;SDS011;21190;58.750;17.004;2024-03-02T06:49:22;54.50;;;20.50;;
34984;SDS011;21190;58.750;17.004;2024-03-02T06:51:49;40.47;;;20.83;;
34984;SDS011;21190;58.750;17.004;2024-03-02T06:54:16;50.72;;;21.50;;
34984;SDS011;21190;58.750;17.004;2024-03-02T06:56:43;46.63;;;19.88;;
34984;SDS011;21190;58.750;17.004;2024-03-02T06:59:11;50.45;;;21.67;;
34984;SDS011;21190;58.750;17.004;2024-03-02T07:01:38;57.90;;;21.08;;
34984;SDS011;21190;58.750;17.004;2024-03-02T07:04:05;41.97;;;21.65;;
34984;SDS011;21190;58.750;17.004;2024-03-02T07:06:33;48.08;;;20.73;;
34984;SDS011;21190;58.750;17.004;2024-03-02T07:09:00;49.05;;;19.23;;
34984;SDS011;21190;58.750;17.004;2024-03-02T07:11:27;48.85;;;19.33;;
34984;SDS011;21190;58.750;17.004;2024-03-02T07:13:54;40.72;;;19.65;;
34984;SDS011;21190;58.750;17.004;2024-03-02T07:16:21;46.10;;;19.70;;
34984;SDS011;21190;58.750;17.004;2024-03-02T07:18:56;48.13;;;19.50;;
34984;SDS011;21190;58.750;17.004;2024-03-02T07:21:24;41.15;;;18.38;;
34984;SDS011;21190;58.750;17.004;2024-03-02T07:23:51;41.80;;;18.10;;
34984;SDS011;21190;58.750;17.004;2024-03-02T07:26:18;53.67;;;18.67;;
34984;SDS011;21190;58.750;17.004;2024-03-02T07:28:48;44.28;;;18.25;;
34984;SDS011;21190;58.750;17.004;2024-03-02T07:31:16;44.45;;;19.15;;
34984;SDS011;21190;58.750;17.004;2024-03-02T07:33:44;44.95;;;18.23;;
34984;SDS011;21190;58.750;17.004;2024-03-02T07:36:12;45.45;;;18.80;;
34984;SDS011;21190;58.750;17.004;2024-03-02T07:38:40;45.75;;;17.85;;
34984;SDS011;21190;58.750;17.004;2024-03-02T07:41:07;44.80;;;18.52;;
34984;SDS011;21190;58.750;17.004;2024-03-02T07:43:35;39.50;;;17.58;;
34984;SDS011;21190;58.750;17.004;2024-03-02T07:46:02;43.45;;;17.80;;
34984;SDS011;21190;58.750;17.004;2024-03-02T07:48:29;43.13;;;18.30;;
34984;SDS011;21190;58.750;17.004;2024-03-02T07:50:57;43.30;;;18.52;;
34984;SDS011;21190;58.750;17.004;2024-03-02T07:53:25;41.70;;;17.75;;
34984;SDS011;21190;58.750;17.004;2024-03-02T07:55:52;43.58;;;18.33;;
34984;SDS011;21190;58.750;17.004;2024-03-02T07:58:19;47.50;;;18.25;;
34984;SDS011;21190;58.750;17.004;2024-03-02T08:00:46;47.35;;;17.75;;
34984;SDS011;21190;58.750;17.004;2024-03-02T08:03:16;42.55;;;17.80;;
34984;SDS011;21190;58.750;17.004;2024-03-02T08:05:44;44.72;;;17.70;;
34984;SDS011;21190;58.750;17.004;2024-03-02T08:08:11;42.33;;;16.88;;
34984;SDS011;21190;58.750;17.004;2024-03-02T08:10:38;47.30;;;16.85;;
34984;SDS011;21190;58.750;17.004;2024-03-02T08:13:05;38.55;;;16.30;;
34984;SDS011;21190;58.750;17.004;2024-03-02T08:15:32;36.90;;;17.23;;
34984;SDS011;21190;58.750;17.004;2024-03-02T08:17:59;40.75;;;16.48;;
34984;SDS011;21190;58.750;17.004;2024-03-02T08:20:27;39.65;;;17.38;;
34984;SDS011;21190;58.750;17.004;2024-03-02T08:22:54;38.63;;;16.45;;
34984;SDS011;21190;58.750;17.004;2024-03-02T08:25:21;41.03;;;16.88;;
34984;SDS011;21190;58.750;17.004;2024-03-02T08:27:49;39.55;;;15.80;;
34984;SDS011;21190;58.750;17.004;2024-03-02T08:30:16;41.08;;;16.27;;
34984;SDS011;21190;58.750;17.004;2024-03-02T08:32:44;39.83;;;17.20;;
34984;SDS011;21190;58.750;17.004;2024-03-02T08:35:14;35.67;;;15.65;;
34984;SDS011;21190;58.750;17.004;2024-03-02T08:37:41;36.47;;;15.70;;
34984;SDS011;21190;58.750;17.004;2024-03-02T08:40:09;40.15;;;15.98;;
34984;SDS011;21190;58.750;17.004;2024-03-02T08:42:41;45.20;;;15.57;;
34984;SDS011;21190;58.750;17.004;2024-03-02T08:45:08;32.83;;;15.68;;
34984;SDS011;21190;58.750;17.004;2024-03-02T08:47:36;35.85;;;15.98;;
34984;SDS011;21190;58.750;17.004;2024-03-02T08:50:03;39.97;;;15.75;;
34984;SDS011;21190;58.750;17.004;2024-03-02T08:52:31;42.75;;;16.27;;
34984;SDS011;21190;58.750;17.004;2024-03-02T08:54:58;38.70;;;15.38;;
34984;SDS011;21190;58.750;17.004;2024-03-02T08:57:25;38.03;;;15.25;;
34984;SDS011;21190;58.750;17.004;2024-03-02T08:59:52;37.45;;;14.23;;
34984;SDS011;21190;58.750;17.004;2024-03-02T09:02:20;43.15;;;15.65;;
34984;SDS011;21190;58.750;17.004;2024-03-02T09:04:47;40.10;;;15.48;;
34984;SDS011;21190;58.750;17.004;2024-03-02T09:07:16;37.05;;;16.05;;
34984;SDS011;21190;58.750;17.004;2024-03-02T09:09:43;37.17;;;14.60;;
34984;SDS011;21190;58.750;17.004;2024-03-02T09:12:10;36.90;;;14.95;;
34984;SDS011;21190;58.750;17.004;2024-03-02T09:14:37;41.05;;;17.20;;
34984;SDS011;21190;58.750;17.004;2024-03-02T09:17:04;38.35;;;15.63;;
34984;SDS011;21190;58.750;17.004;2024-03-02T09:19:32;33.95;;;14.55;;
34984;SDS011;21190;58.750;17.004;2024-03-02T09:21:59;54.10;;;15.90;;
34984;SDS011;21190;58.750;17.004;2024-03-02T09:24:28;40.35;;;14.75;;
34984;SDS011;21190;58.750;17.004;2024-03-02T09:26:55;35.83;;;14.63;;
34984;SDS011;21190;58.750;17.004;2024-03-02T09:29:22;40.85;;;15.13;;
34984;SDS011;21190;58.750;17.004;2024-03-02T09:31:50;35.25;;;14.60;;
34984;SDS011;21190;58.750;17.004;2024-03-02T09:34:17;41.75;;;15.48;;
34984;SDS011;21190;58.750;17.004;2024-03-02T09:36:45;34.63;;;14.73;;
34984;SDS011;21190;58.750;17.004;2024-03-02T09:39:12;42.65;;;16.10;;
34984;SDS011;21190;58.750;17.004;2024-03-02T09:41:39;37.20;;;15.55;;
34984;SDS011;21190;58.750;17.004;2024-03-02T09:44:07;38.50;;;15.13;;
34984;SDS011;21190;58.750;17.004;2024-03-02T09:46:34;35.10;;;14.65;;
34984;SDS011;21190;58.750;17.004;2024-03-02T09:49:03;41.83;;;16.00;;
34984;SDS011;21190;58.750;17.004;2024-03-02T09:51:31;43.33;;;16.55;;
34984;SDS011;21190;58.750;17.004;2024-03-02T09:53:58;42.95;;;16.67;;
34984;SDS011;21190;58.750;17.004;2024-03-02T09:56:43;37.75;;;15.82;;
34984;SDS011;21190;58.750;17.004;2024-03-02T09:59:11;43.83;;;16.35;;
34984;SDS011;21190;58.750;17.004;2024-03-02T10:01:39;48.50;;;16.58;;
34984;SDS011;21190;58.750;17.004;2024-03-02T10:04:21;39.78;;;16.42;;
34984;SDS011;21190;58.750;17.004;2024-03-02T10:06:49;44.65;;;15.68;;
34984;SDS011;21190;58.750;17.004;2024-03-02T10:09:26;43.35;;;16.00;;
34984;SDS011;21190;58.750;17.004;2024-03-02T10:12:03;39.30;;;15.75;;
34984;SDS011;21190;58.750;17.004;2024-03-02T10:14:31;42.90;;;17.23;;
34984;SDS011;21190;58.750;17.004;2024-03-02T10:17:02;46.83;;;16.17;;
34984;SDS011;21190;58.750;17.004;2024-03-02T10:19:30;41.53;;;16.20;;
34984;SDS011;21190;58.750;17.004;2024-03-02T10:22:02;45.00;;;17.60;;
34984;SDS011;21190;58.750;17.004;2024-03-02T10:24:37;46.63;;;17.45;;
34984;SDS011;21190;58.750;17.004;2024-03-02T10:27:09;40.63;;;16.63;;
34984;SDS011;21190;58.750;17.004;2024-03-02T10:29:38;56.17;;;18.10;;
34984;SDS011;21190;58.750;17.004;2024-03-02T10:32:09;39.85;;;16.02;;
34984;SDS011;21190;58.750;17.004;2024-03-02T10:34:40;42.50;;;15.48;;
34984;SDS011;21190;58.750;17.004;2024-03-02T10:37:08;43.15;;;17.13;;
34984;SDS011;21190;58.750;17.004;2024-03-02T10:39:37;38.88;;;17.35;;
34984;SDS011;21190;58.750;17.004;2024-03-02T10:42:08;47.85;;;18.55;;
34984;SDS011;21190;58.750;17.004;2024-03-02T10:44:36;43.33;;;17.25;;
34984;SDS011;21190;58.750;17.004;2024-03-02T10:47:04;42.67;;;17.55;;
34984;SDS011;21190;58.750;17.004;2024-03-02T10:49:32;40.40;;;17.27;;
34984;SDS011;21190;58.750;17.004;2024-03-02T10:52:00;40.38;;;16.35;;
34984;SDS011;21190;58.750;17.004;2024-03-02T10:54:27;45.20;;;16.02;;
34984;SDS011;21190;58.750;17.004;2024-03-02T10:57:04;52.40;;;17.35;;
34984;SDS011;21190;58.750;17.004;2024-03-02T10:59:34;41.17;;;19.25;;
34984;SDS011;21190;58.750;17.004;2024-03-02T11:02:11;44.25;;;17.55;;
34984;SDS011;21190;58.750;17.004;2024-03-02T11:04:40;36.35;;;16.00;;
34984;SDS011;21190;58.750;17.004;2024-03-02T11:07:09;47.55;;;16.90;;
34984;SDS011;21190;58.750;17.004;2024-03-02T11:09:42;41.05;;;16.92;;
34984;SDS011;21190;58.750;17.004;2024-03-02T11:12:19;44.63;;;17.02;;
34984;SDS011;21190;58.750;17.004;2024-03-02T11:14:55;47.83;;;18.38;;
34984;SDS011;21190;58.750;17.004;2024-03-02T11:17:22;42.13;;;18.15;;
34984;SDS011;21190;58.750;17.004;2024-03-02T11:19:51;48.70;;;17.77;;
34984;SDS011;21190;58.750;17.004;2024-03-02T11:22:19;42.63;;;16.80;;
34984;SDS011;21190;58.750;17.004;2024-03-02T11:24:47;40.13;;;17.08;;
34984;SDS011;21190;58.750;17.004;2024-03-02T11:27:20;42.17;;;16.88;;
34984;SDS011;21190;58.750;17.004;2024-03-02T11:32:58;46.05;;;17.13;;
34984;SDS011;21190;58.750;17.004;2024-03-02T11:35:41;42.83;;;17.15;;
34984;SDS011;21190;58.750;17.004;2024-03-02T11:38:10;42.20;;;18.08;;
34984;SDS011;21190;58.750;17.004;2024-03-02T11:40:38;42.83;;;17.67;;
34984;SDS011;21190;58.750;17.004;2024-03-02T11:43:06;45.05;;;17.90;;
34984;SDS011;21190;58.750;17.004;2024-03-02T11:45:35;39.90;;;16.38;;
34984;SDS011;21190;58.750;17.004;2024-03-02T11:48:07;49.53;;;17.65;;
34984;SDS011;21190;58.750;17.004;2024-03-02T11:50:43;38.40;;;17.25;;
34984;SDS011;21190;58.750;17.004;2024-03-02T11:53:15;43.42;;;17.23;;
34984;SDS011;21190;58.750;17.004;2024-03-02T11:55:43;42.25;;;17.48;;
34984;SDS011;21190;58.750;17.004;2024-03-02T11:58:14;43.05;;;18.17;;
34984;SDS011;21190;58.750;17.004;2024-03-02T12:00:53;39.13;;;18.17;;
34984;SDS011;21190;58.750;17.004;2024-03-02T12:03:22;42.00;;;19.05;;
34984;SDS011;21190;58.750;17.004;2024-03-02T12:05:52;39.08;;;16.83;;
34984;SDS011;21190;58.750;17.004;2024-03-02T12:08:20;43.58;;;17.50;;
34984;SDS011;21190;58.750;17.004;2024-03-02T12:11:00;37.20;;;16.48;;
34984;SDS011;21190;58.750;17.004;2024-03-02T12:13:30;45.35;;;17.77;;
34984;SDS011;21190;58.750;17.004;2024-03-02T12:15:58;38.22;;;17.27;;
34984;SDS011;21190;58.750;17.004;2024-03-02T12:18:25;34.80;;;16.63;;
34984;SDS011;21190;58.750;17.004;2024-03-02T12:20:53;43.45;;;17.25;;
34984;SDS011;21190;58.750;17.004;2024-03-02T12:23:24;36.15;;;16.90;;
34984;SDS011;21190;58.750;17.004;2024-03-02T12:25:52;39.95;;;16.55;;
34984;SDS011;21190;58.750;17.004;2024-03-02T12:28:19;39.47;;;17.60;;
34984;SDS011;21190;58.750;17.004;2024-03-02T12:30:47;43.47;;;17.00;;
34984;SDS011;21190;58.750;17.004;2024-03-02T12:33:17;39.40;;;17.83;;
34984;SDS011;21190;58.750;17.004;2024-03-02T12:35:48;35.88;;;16.42;;
34984;SDS011;21190;58.750;17.004;2024-03-02T12:38:16;40.88;;;16.52;;
34984;SDS011;21190;58.750;17.004;2024-03-02T12:40:43;43.92;;;18.42;;
34984;SDS011;21190;58.750;17.004;2024-03-02T12:43:10;43.38;;;17.95;;
34984;SDS011;21190;58.750;17.004;2024-03-02T12:45:38;45.40;;;18.20;;
34984;SDS011;21190;58.750;17.004;2024-03-02T12:48:05;39.63;;;16.42;;
34984;SDS011;21190;58.750;17.004;2024-03-02T12:50:33;41.65;;;17.08;;
34984;SDS011;21190;58.750;17.004;2024-03-02T12:53:00;45.03;;;18.70;;
34984;SDS011;21190;58.750;17.004;2024-03-02T12:55:29;41.95;;;18.08;;
34984;SDS011;21190;58.750;17.004;2024-03-02T12:57:57;33.97;;;17.10;;
34984;SDS011;21190;58.750;17.004;2024-03-02T13:00:26;40.70;;;17.75;;
34984;SDS011;21190;58.750;17.004;2024-03-02T13:02:53;38.50;;;18.55;;
34984;SDS011;21190;58.750;17.004;2024-03-02T13:05:20;43.00;;;16.92;;
34984;SDS011;21190;58.750;17.004;2024-03-02T13:07:48;37.38;;;17.25;;
34984;SDS011;21190;58.750;17.004;2024-03-02T13:10:16;41.40;;;16.85;;
34984;SDS011;21190;58.750;17.004;2024-03-02T13:12:45;37.47;;;18.45;;
34984;SDS011;21190;58.750;17.004;2024-03-02T13:15:12;38.92;;;17.70;;
34984;SDS011;21190;58.750;17.004;2024-03-02T13:17:44;42.97;;;17.98;;
34984;SDS011;21190;58.750;17.004;2024-03-02T13:20:13;38.60;;;17.25;;
34984;SDS011;21190;58.750;17.004;2024-03-02T13:22:41;47.72;;;17.52;;
34984;SDS011;21190;58.750;17.004;2024-03-02T13:25:08;41.78;;;18.25;;
34984;SDS011;21190;58.750;17.004;2024-03-02T13:27:38;36.70;;;16.35;;
34984;SDS011;21190;58.750;17.004;2024-03-02T13:30:06;37.60;;;18.27;;
34984;SDS011;21190;58.750;17.004;2024-03-02T13:32:36;42.70;;;17.88;;
34984;SDS011;21190;58.750;17.004;2024-03-02T13:35:03;43.47;;;19.25;;
34984;SDS011;21190;58.750;17.004;2024-03-02T13:37:31;40.42;;;16.55;;
34984;SDS011;21190;58.750;17.004;2024-03-02T13:39:59;37.40;;;18.27;;
34984;SDS011;21190;58.750;17.004;2024-03-02T13:42:26;42.53;;;18.67;;
34984;SDS011;21190;58.750;17.004;2024-03-02T13:44:54;43.72;;;17.65;;
34984;SDS011;21190;58.750;17.004;2024-03-02T13:47:21;39.55;;;17.50;;
34984;SDS011;21190;58.750;17.004;2024-03-02T13:49:48;46.00;;;18.40;;
34984;SDS011;21190;58.750;17.004;2024-03-02T13:52:15;39.17;;;16.67;;
34984;SDS011;21190;58.750;17.004;2024-03-02T13:54:44;39.28;;;18.80;;
34984;SDS011;21190;58.750;17.004;2024-03-02T13:57:12;39.30;;;17.92;;
34984;SDS011;21190;58.750;17.004;2024-03-02T13:59:40;37.78;;;17.83;;
34984;SDS011;21190;58.750;17.004;2024-03-02T14:02:09;34.65;;;17.40;;
34984;SDS011;21190;58.750;17.004;2024-03-02T14:04:38;35.70;;;17.40;;
34984;SDS011;21190;58.750;17.004;2024-03-02T14:07:06;34.88;;;17.85;;
34984;SDS011;21190;58.750;17.004;2024-03-02T14:09:34;38.53;;;18.95;;
34984;SDS011;21190;58.750;17.004;2024-03-02T14:12:03;40.58;;;16.75;;
34984;SDS011;21190;58.750;17.004;2024-03-02T14:14:31;47.03;;;18.52;;
34984;SDS011;21190;58.750;17.004;2024-03-02T14:16:59;46.20;;;17.20;;
34984;SDS011;21190;58.750;17.004;2024-03-02T14:19:30;39.88;;;17.52;;
34984;SDS011;21190;58.750;17.004;2024-03-02T14:21:57;39.83;;;17.60;;
34984;SDS011;21190;58.750;17.004;2024-03-02T14:24:25;46.63;;;17.88;;